sensor_id;sensor_type;location;lat;lon;timestamp;temperature;humidity
68485;DHT22;55472;50.060;21.960;2023-02-03T00:01:20;0.40;96.40
68485;DHT22;55472;50.060;21.960;2023-02-03T00:03:47;0.40;96.40
68485;DHT22;55472;50.060;21.960;2023-02-03T00:06:14;0.40;96.50
68485;DHT22;55472;50.060;21.960;2023-02-03T00:08:40;0.40;96.40
68485;DHT22;55472;50.060;21.960;2023-02-03T00:11:06;0.40;96.40
68485;DHT22;55472;50.060;21.960;2023-02-03T00:13:33;0.30;96.40
68485;DHT22;55472;50.060;21.960;2023-02-03T00:16:00;0.30;96.40
68485;DHT22;55472;50.060;21.960;2023-02-03T00:18:32;0.30;96.40
68485;DHT22;55472;50.060;21.960;2023-02-03T00:20:58;0.30;96.40
68485;DHT22;55472;50.060;21.960;2023-02-03T00:23:24;0.30;96.40
68485;DHT22;55472;50.060;21.960;2023-02-03T00:25:51;0.30;96.30
68485;DHT22;55472;50.060;21.960;2023-02-03T00:28:18;0.30;96.40
68485;DHT22;55472;50.060;21.960;2023-02-03T00:30:44;0.30;96.60
68485;DHT22;55472;50.060;21.960;2023-02-03T00:33:10;0.30;96.70
68485;DHT22;55472;50.060;21.960;2023-02-03T00:35:37;0.30;97.00
68485;DHT22;55472;50.060;21.960;2023-02-03T00:38:05;0.30;97.00
68485;DHT22;55472;50.060;21.960;2023-02-03T00:40:31;0.30;97.00
68485;DHT22;55472;50.060;21.960;2023-02-03T00:42:57;0.30;96.90
68485;DHT22;55472;50.060;21.960;2023-02-03T00:45:23;0.30;96.80
68485;DHT22;55472;50.060;21.960;2023-02-03T00:47:50;0.30;96.90
68485;DHT22;55472;50.060;21.960;2023-02-03T00:50:16;0.30;96.60
68485;DHT22;55472;50.060;21.960;2023-02-03T00:52:42;0.30;96.60
68485;DHT22;55472;50.060;21.960;2023-02-03T00:55:08;0.30;96.90
68485;DHT22;55472;50.060;21.960;2023-02-03T00:57:35;0.30;97.00
68485;DHT22;55472;50.060;21.960;2023-02-03T01:00:01;0.20;97.30
68485;DHT22;55472;50.060;21.960;2023-02-03T01:02:27;0.20;97.70
68485;DHT22;55472;50.060;21.960;2023-02-03T01:04:53;0.10;98.10
68485;DHT22;55472;50.060;21.960;2023-02-03T01:07:21;0.10;98.00
68485;DHT22;55472;50.060;21.960;2023-02-03T01:09:47;0.00;97.90
68485;DHT22;55472;50.060;21.960;2023-02-03T01:12:14;0.00;98.20
68485;DHT22;55472;50.060;21.960;2023-02-03T01:14:40;0.00;98.20
68485;DHT22;55472;50.060;21.960;2023-02-03T01:17:06;-0.10;98.30
68485;DHT22;55472;50.060;21.960;2023-02-03T01:19:32;-0.10;98.60
68485;DHT22;55472;50.060;21.960;2023-02-03T01:21:58;-0.10;98.90
68485;DHT22;55472;50.060;21.960;2023-02-03T01:24:24;-0.10;98.90
68485;DHT22;55472;50.060;21.960;2023-02-03T01:26:51;-0.20;99.20
68485;DHT22;55472;50.060;21.960;2023-02-03T01:29:17;-0.20;99.30
68485;DHT22;55472;50.060;21.960;2023-02-03T01:31:43;-0.20;99.20
68485;DHT22;55472;50.060;21.960;2023-02-03T01:34:13;-0.20;99.20
68485;DHT22;55472;50.060;21.960;2023-02-03T01:36:41;-0.20;99.00
68485;DHT22;55472;50.060;21.960;2023-02-03T01:39:07;-0.20;98.90
68485;DHT22;55472;50.060;21.960;2023-02-03T01:41:36;-0.20;98.90
68485;DHT22;55472;50.060;21.960;2023-02-03T01:50:20;-0.30;99.00
68485;DHT22;55472;50.060;21.960;2023-02-03T01:52:57;-0.20;98.90
68485;DHT22;55472;50.060;21.960;2023-02-03T01:55:33;-0.30;98.90
68485;DHT22;55472;50.060;21.960;2023-02-03T02:00:42;-0.30;99.10
68485;DHT22;55472;50.060;21.960;2023-02-03T02:03:09;-0.30;99.20
68485;DHT22;55472;50.060;21.960;2023-02-03T02:08:08;-0.30;99.50
68485;DHT22;55472;50.060;21.960;2023-02-03T02:10:35;-0.30;99.30
68485;DHT22;55472;50.060;21.960;2023-02-03T02:13:03;-0.30;99.30
68485;DHT22;55472;50.060;21.960;2023-02-03T02:39:23;-0.20;99.90
68485;DHT22;55472;50.060;21.960;2023-02-03T02:42:00;-0.30;99.90
68485;DHT22;55472;50.060;21.960;2023-02-03T02:44:45;-0.30;99.90
68485;DHT22;55472;50.060;21.960;2023-02-03T02:47:22;-0.40;99.90
68485;DHT22;55472;50.060;21.960;2023-02-03T02:50:15;-0.40;99.90
68485;DHT22;55472;50.060;21.960;2023-02-03T02:52:47;-0.50;99.90
68485;DHT22;55472;50.060;21.960;2023-02-03T02:55:17;-0.50;99.90
68485;DHT22;55472;50.060;21.960;2023-02-03T02:57:52;-0.60;99.90
68485;DHT22;55472;50.060;21.960;2023-02-03T03:00:20;-0.60;99.90
68485;DHT22;55472;50.060;21.960;2023-02-03T03:02:46;-0.60;99.90
68485;DHT22;55472;50.060;21.960;2023-02-03T03:05:13;-0.60;99.90
68485;DHT22;55472;50.060;21.960;2023-02-03T03:07:47;-0.60;99.90
68485;DHT22;55472;50.060;21.960;2023-02-03T03:10:19;-0.60;99.90
68485;DHT22;55472;50.060;21.960;2023-02-03T03:12:53;-0.60;99.90
68485;DHT22;55472;50.060;21.960;2023-02-03T03:15:25;-0.60;99.90
68485;DHT22;55472;50.060;21.960;2023-02-03T03:21:05;-0.60;99.90
68485;DHT22;55472;50.060;21.960;2023-02-03T03:23:37;-0.70;99.90
68485;DHT22;55472;50.060;21.960;2023-02-03T03:26:35;-0.60;99.90
68485;DHT22;55472;50.060;21.960;2023-02-03T03:29:16;-0.70;99.90
68485;DHT22;55472;50.060;21.960;2023-02-03T03:31:45;-0.70;99.90
68485;DHT22;55472;50.060;21.960;2023-02-03T03:34:12;-0.70;99.90
68485;DHT22;55472;50.060;21.960;2023-02-03T03:39:56;-0.80;99.30
68485;DHT22;55472;50.060;21.960;2023-02-03T03:42:49;-0.80;98.80
68485;DHT22;55472;50.060;21.960;2023-02-03T03:45:31;-0.80;98.50
68485;DHT22;55472;50.060;21.960;2023-02-03T03:48:16;-0.90;98.20
68485;DHT22;55472;50.060;21.960;2023-02-03T03:50:47;-0.90;97.90
68485;DHT22;55472;50.060;21.960;2023-02-03T03:53:19;-1.00;97.80
68485;DHT22;55472;50.060;21.960;2023-02-03T03:55:49;-1.00;97.60
68485;DHT22;55472;50.060;21.960;2023-02-03T03:58:27;-1.10;97.60
68485;DHT22;55472;50.060;21.960;2023-02-03T04:00:59;-1.10;97.50
68485;DHT22;55472;50.060;21.960;2023-02-03T04:03:31;-1.10;97.60
68485;DHT22;55472;50.060;21.960;2023-02-03T04:06:02;-1.20;97.70
68485;DHT22;55472;50.060;21.960;2023-02-03T04:08:29;-1.20;97.60
68485;DHT22;55472;50.060;21.960;2023-02-03T04:10:55;-1.20;97.40
68485;DHT22;55472;50.060;21.960;2023-02-03T04:13:21;-1.30;97.20
68485;DHT22;55472;50.060;21.960;2023-02-03T04:15:47;-1.30;96.70
68485;DHT22;55472;50.060;21.960;2023-02-03T04:18:15;-1.30;96.60
68485;DHT22;55472;50.060;21.960;2023-02-03T04:20:42;-1.40;96.00
68485;DHT22;55472;50.060;21.960;2023-02-03T04:23:08;-1.40;96.00
68485;DHT22;55472;50.060;21.960;2023-02-03T04:25:35;-1.40;96.10
68485;DHT22;55472;50.060;21.960;2023-02-03T04:28:01;-1.40;96.00
68485;DHT22;55472;50.060;21.960;2023-02-03T04:30:28;-1.40;96.00
68485;DHT22;55472;50.060;21.960;2023-02-03T04:32:54;-1.40;95.60
68485;DHT22;55472;50.060;21.960;2023-02-03T04:35:20;-1.40;95.50
68485;DHT22;55472;50.060;21.960;2023-02-03T04:37:46;-1.40;95.10
68485;DHT22;55472;50.060;21.960;2023-02-03T04:40:13;-1.40;94.80
68485;DHT22;55472;50.060;21.960;2023-02-03T04:42:39;-1.40;94.60
68485;DHT22;55472;50.060;21.960;2023-02-03T04:45:08;-1.40;94.70
68485;DHT22;55472;50.060;21.960;2023-02-03T04:47:35;-1.40;94.70
68485;DHT22;55472;50.060;21.960;2023-02-03T04:50:01;-1.40;94.60
68485;DHT22;55472;50.060;21.960;2023-02-03T04:52:28;-1.40;94.30
68485;DHT22;55472;50.060;21.960;2023-02-03T04:54:54;-1.40;93.80
68485;DHT22;55472;50.060;21.960;2023-02-03T04:57:20;-1.40;93.80
68485;DHT22;55472;50.060;21.960;2023-02-03T04:59:46;-1.40;93.70
68485;DHT22;55472;50.060;21.960;2023-02-03T05:02:12;-1.40;93.20
68485;DHT22;55472;50.060;21.960;2023-02-03T05:04:39;-1.40;93.00
68485;DHT22;55472;50.060;21.960;2023-02-03T05:07:05;-1.40;92.90
68485;DHT22;55472;50.060;21.960;2023-02-03T05:09:31;-1.40;93.00
68485;DHT22;55472;50.060;21.960;2023-02-03T05:11:57;-1.40;93.10
68485;DHT22;55472;50.060;21.960;2023-02-03T05:14:24;-1.40;93.10
68485;DHT22;55472;50.060;21.960;2023-02-03T05:16:50;-1.40;93.00
68485;DHT22;55472;50.060;21.960;2023-02-03T05:19:16;-1.50;93.20
68485;DHT22;55472;50.060;21.960;2023-02-03T05:21:42;-1.50;93.00
68485;DHT22;55472;50.060;21.960;2023-02-03T05:24:09;-1.50;93.30
68485;DHT22;55472;50.060;21.960;2023-02-03T05:26:35;-1.60;93.20
68485;DHT22;55472;50.060;21.960;2023-02-03T05:29:02;-1.60;93.30
68485;DHT22;55472;50.060;21.960;2023-02-03T05:31:28;-1.70;93.50
68485;DHT22;55472;50.060;21.960;2023-02-03T05:33:54;-1.70;93.60
68485;DHT22;55472;50.060;21.960;2023-02-03T05:36:20;-1.70;93.60
68485;DHT22;55472;50.060;21.960;2023-02-03T05:38:47;-1.80;93.70
68485;DHT22;55472;50.060;21.960;2023-02-03T05:41:13;-1.80;93.80
68485;DHT22;55472;50.060;21.960;2023-02-03T05:43:57;-1.90;93.80
68485;DHT22;55472;50.060;21.960;2023-02-03T05:46:23;-1.90;93.80
68485;DHT22;55472;50.060;21.960;2023-02-03T05:48:50;-1.90;93.80
68485;DHT22;55472;50.060;21.960;2023-02-03T05:51:16;-1.90;93.80
68485;DHT22;55472;50.060;21.960;2023-02-03T05:53:42;-1.90;93.90
68485;DHT22;55472;50.060;21.960;2023-02-03T05:56:08;-1.90;93.90
68485;DHT22;55472;50.060;21.960;2023-02-03T05:58:35;-1.80;93.90
68485;DHT22;55472;50.060;21.960;2023-02-03T06:01:01;-1.80;94.10
68485;DHT22;55472;50.060;21.960;2023-02-03T06:03:27;-1.80;93.90
68485;DHT22;55472;50.060;21.960;2023-02-03T06:05:53;-1.80;93.40
68485;DHT22;55472;50.060;21.960;2023-02-03T06:08:20;-1.80;93.10
68485;DHT22;55472;50.060;21.960;2023-02-03T06:10:46;-1.80;92.90
68485;DHT22;55472;50.060;21.960;2023-02-03T06:13:14;-1.80;92.90
68485;DHT22;55472;50.060;21.960;2023-02-03T06:15:41;-1.70;92.10
68485;DHT22;55472;50.060;21.960;2023-02-03T06:18:08;-1.70;91.80
68485;DHT22;55472;50.060;21.960;2023-02-03T06:20:34;-1.70;91.40
68485;DHT22;55472;50.060;21.960;2023-02-03T06:23:01;-1.60;91.30
68485;DHT22;55472;50.060;21.960;2023-02-03T06:25:28;-1.60;91.30
68485;DHT22;55472;50.060;21.960;2023-02-03T06:27:57;-1.60;91.20
68485;DHT22;55472;50.060;21.960;2023-02-03T06:30:23;-1.50;91.00
68485;DHT22;55472;50.060;21.960;2023-02-03T06:32:50;-1.50;90.90
68485;DHT22;55472;50.060;21.960;2023-02-03T06:35:17;-1.50;90.20
68485;DHT22;55472;50.060;21.960;2023-02-03T06:37:43;-1.40;89.90
68485;DHT22;55472;50.060;21.960;2023-02-03T06:40:10;-1.40;89.60
68485;DHT22;55472;50.060;21.960;2023-02-03T06:42:37;-1.30;89.00
68485;DHT22;55472;50.060;21.960;2023-02-03T06:45:04;-1.30;89.00
68485;DHT22;55472;50.060;21.960;2023-02-03T06:47:31;-1.30;88.80
68485;DHT22;55472;50.060;21.960;2023-02-03T06:49:57;-1.20;88.20
68485;DHT22;55472;50.060;21.960;2023-02-03T06:52:23;-1.20;87.10
68485;DHT22;55472;50.060;21.960;2023-02-03T06:54:49;-1.10;86.80
68485;DHT22;55472;50.060;21.960;2023-02-03T06:57:15;-1.10;86.90
68485;DHT22;55472;50.060;21.960;2023-02-03T06:59:41;-1.10;87.20
68485;DHT22;55472;50.060;21.960;2023-02-03T07:02:10;-1.10;87.00
68485;DHT22;55472;50.060;21.960;2023-02-03T07:04:36;-1.00;86.90
68485;DHT22;55472;50.060;21.960;2023-02-03T07:07:04;-1.00;86.90
68485;DHT22;55472;50.060;21.960;2023-02-03T07:09:30;-1.00;86.50
68485;DHT22;55472;50.060;21.960;2023-02-03T07:11:56;-1.00;86.50
68485;DHT22;55472;50.060;21.960;2023-02-03T07:14:23;-0.90;86.20
68485;DHT22;55472;50.060;21.960;2023-02-03T07:16:49;-0.90;86.10
68485;DHT22;55472;50.060;21.960;2023-02-03T07:19:15;-0.90;85.70
68485;DHT22;55472;50.060;21.960;2023-02-03T07:21:41;-0.80;85.60
68485;DHT22;55472;50.060;21.960;2023-02-03T07:24:07;-0.80;85.40
68485;DHT22;55472;50.060;21.960;2023-02-03T07:26:34;-0.80;85.20
68485;DHT22;55472;50.060;21.960;2023-02-03T07:29:00;-0.80;84.70
68485;DHT22;55472;50.060;21.960;2023-02-03T07:31:26;-0.80;84.30
68485;DHT22;55472;50.060;21.960;2023-02-03T07:33:52;-0.80;84.40
68485;DHT22;55472;50.060;21.960;2023-02-03T07:36:18;-0.80;84.40
68485;DHT22;55472;50.060;21.960;2023-02-03T07:38:45;-0.80;84.10
68485;DHT22;55472;50.060;21.960;2023-02-03T07:41:11;-0.80;84.00
68485;DHT22;55472;50.060;21.960;2023-02-03T07:43:37;-0.80;84.10
68485;DHT22;55472;50.060;21.960;2023-02-03T07:46:04;-0.70;84.00
68485;DHT22;55472;50.060;21.960;2023-02-03T07:48:30;-0.70;84.30
68485;DHT22;55472;50.060;21.960;2023-02-03T07:50:57;-0.70;84.20
68485;DHT22;55472;50.060;21.960;2023-02-03T07:53:23;-0.70;84.60
68485;DHT22;55472;50.060;21.960;2023-02-03T07:55:50;-0.70;84.70
68485;DHT22;55472;50.060;21.960;2023-02-03T07:58:16;-0.70;84.30
68485;DHT22;55472;50.060;21.960;2023-02-03T08:00:42;-0.60;84.70
68485;DHT22;55472;50.060;21.960;2023-02-03T08:03:08;0.00;84.20
68485;DHT22;55472;50.060;21.960;2023-02-03T08:05:35;0.60;82.50
68485;DHT22;55472;50.060;21.960;2023-02-03T08:08:01;1.40;80.50
68485;DHT22;55472;50.060;21.960;2023-02-03T08:10:27;2.10;77.20
68485;DHT22;55472;50.060;21.960;2023-02-03T08:12:54;2.70;74.10
68485;DHT22;55472;50.060;21.960;2023-02-03T08:15:21;2.80;71.80
68485;DHT22;55472;50.060;21.960;2023-02-03T08:17:48;2.70;70.90
68485;DHT22;55472;50.060;21.960;2023-02-03T08:20:15;3.70;68.80
68485;DHT22;55472;50.060;21.960;2023-02-03T08:22:41;5.30;64.70
68485;DHT22;55472;50.060;21.960;2023-02-03T08:25:08;7.00;60.10
68485;DHT22;55472;50.060;21.960;2023-02-03T08:27:35;6.60;58.10
68485;DHT22;55472;50.060;21.960;2023-02-03T08:30:01;7.40;57.90
68485;DHT22;55472;50.060;21.960;2023-02-03T08:32:28;8.30;56.20
68485;DHT22;55472;50.060;21.960;2023-02-03T08:34:54;8.80;53.30
68485;DHT22;55472;50.060;21.960;2023-02-03T08:37:22;9.50;52.30
68485;DHT22;55472;50.060;21.960;2023-02-03T08:39:50;11.50;48.80
68485;DHT22;55472;50.060;21.960;2023-02-03T08:42:17;12.00;46.70
68485;DHT22;55472;50.060;21.960;2023-02-03T08:44:44;12.70;44.60
68485;DHT22;55472;50.060;21.960;2023-02-03T08:47:10;11.40;44.70
68485;DHT22;55472;50.060;21.960;2023-02-03T08:49:37;11.00;45.20
68485;DHT22;55472;50.060;21.960;2023-02-03T08:52:08;10.60;46.60
68485;DHT22;55472;50.060;21.960;2023-02-03T08:54:36;11.20;45.90
68485;DHT22;55472;50.060;21.960;2023-02-03T08:57:03;11.90;43.70
68485;DHT22;55472;50.060;21.960;2023-02-03T08:59:29;11.40;43.60
68485;DHT22;55472;50.060;21.960;2023-02-03T09:01:56;12.70;42.40
68485;DHT22;55472;50.060;21.960;2023-02-03T09:04:24;12.90;40.90
68485;DHT22;55472;50.060;21.960;2023-02-03T09:06:52;13.50;40.60
68485;DHT22;55472;50.060;21.960;2023-02-03T09:09:20;14.10;39.40
68485;DHT22;55472;50.060;21.960;2023-02-03T09:11:46;14.20;39.50
68485;DHT22;55472;50.060;21.960;2023-02-03T09:14:13;14.20;39.00
68485;DHT22;55472;50.060;21.960;2023-02-03T09:16:39;14.20;37.70
68485;DHT22;55472;50.060;21.960;2023-02-03T09:19:05;13.40;38.50
68485;DHT22;55472;50.060;21.960;2023-02-03T09:21:32;11.50;39.60
68485;DHT22;55472;50.060;21.960;2023-02-03T09:24:02;9.90;42.50
68485;DHT22;55472;50.060;21.960;2023-02-03T09:26:28;8.50;46.60
68485;DHT22;55472;50.060;21.960;2023-02-03T09:28:55;7.40;49.00
68485;DHT22;55472;50.060;21.960;2023-02-03T09:31:21;6.60;51.10
68485;DHT22;55472;50.060;21.960;2023-02-03T09:33:47;5.90;52.80
68485;DHT22;55472;50.060;21.960;2023-02-03T09:36:13;5.30;54.00
68485;DHT22;55472;50.060;21.960;2023-02-03T09:38:40;4.90;56.60
68485;DHT22;55472;50.060;21.960;2023-02-03T09:43:49;4.50;58.80
68485;DHT22;55472;50.060;21.960;2023-02-03T09:46:24;4.50;58.40
68485;DHT22;55472;50.060;21.960;2023-02-03T09:48:59;4.40;58.30
68485;DHT22;55472;50.060;21.960;2023-02-03T09:51:58;4.30;58.90
68485;DHT22;55472;50.060;21.960;2023-02-03T09:57:14;4.40;57.80
68485;DHT22;55472;50.060;21.960;2023-02-03T09:59:44;4.50;58.10
68485;DHT22;55472;50.060;21.960;2023-02-03T10:07:52;4.40;59.30
68485;DHT22;55472;50.060;21.960;2023-02-03T10:10:57;4.20;57.40
68485;DHT22;55472;50.060;21.960;2023-02-03T10:17:00;4.00;60.10
68485;DHT22;55472;50.060;21.960;2023-02-03T10:19:55;3.90;59.70
68485;DHT22;55472;50.060;21.960;2023-02-03T10:22:26;3.90;59.90
68485;DHT22;55472;50.060;21.960;2023-02-03T10:25:01;4.10;59.60
68485;DHT22;55472;50.060;21.960;2023-02-03T10:27:31;4.20;59.00
68485;DHT22;55472;50.060;21.960;2023-02-03T10:33:13;4.30;58.00
68485;DHT22;55472;50.060;21.960;2023-02-03T10:35:52;4.30;59.20
68485;DHT22;55472;50.060;21.960;2023-02-03T10:38:35;4.20;59.00
68485;DHT22;55472;50.060;21.960;2023-02-03T10:41:03;4.10;58.10
68485;DHT22;55472;50.060;21.960;2023-02-03T10:43:31;4.00;58.80
68485;DHT22;55472;50.060;21.960;2023-02-03T10:46:17;3.90;59.50
68485;DHT22;55472;50.060;21.960;2023-02-03T10:48:44;3.80;59.90
68485;DHT22;55472;50.060;21.960;2023-02-03T10:51:19;3.80;59.80
68485;DHT22;55472;50.060;21.960;2023-02-03T10:53:47;3.90;60.00
68485;DHT22;55472;50.060;21.960;2023-02-03T10:56:20;4.00;58.70
68485;DHT22;55472;50.060;21.960;2023-02-03T10:58:54;4.10;57.80
68485;DHT22;55472;50.060;21.960;2023-02-03T11:01:36;4.20;57.10
68485;DHT22;55472;50.060;21.960;2023-02-03T11:04:04;4.40;56.60
68485;DHT22;55472;50.060;21.960;2023-02-03T11:06:32;4.50;56.90
68485;DHT22;55472;50.060;21.960;2023-02-03T11:09:01;4.40;56.00
68485;DHT22;55472;50.060;21.960;2023-02-03T11:11:47;4.30;56.80
68485;DHT22;55472;50.060;21.960;2023-02-03T11:14:16;4.20;56.80
68485;DHT22;55472;50.060;21.960;2023-02-03T11:16:43;4.00;58.80
68485;DHT22;55472;50.060;21.960;2023-02-03T11:19:20;3.90;57.40
68485;DHT22;55472;50.060;21.960;2023-02-03T11:21:49;3.80;57.30
68485;DHT22;55472;50.060;21.960;2023-02-03T11:24:21;3.70;57.30
68485;DHT22;55472;50.060;21.960;2023-02-03T11:29:42;3.60;58.60
68485;DHT22;55472;50.060;21.960;2023-02-03T11:35:20;3.50;57.30
68485;DHT22;55472;50.060;21.960;2023-02-03T11:37:51;3.40;58.00
68485;DHT22;55472;50.060;21.960;2023-02-03T11:45:37;3.20;60.60
68485;DHT22;55472;50.060;21.960;2023-02-03T11:48:19;3.20;60.60
68485;DHT22;55472;50.060;21.960;2023-02-03T11:53:59;3.10;60.30
68485;DHT22;55472;50.060;21.960;2023-02-03T12:02:30;2.80;61.60
68485;DHT22;55472;50.060;21.960;2023-02-03T12:05:31;2.50;60.00
68485;DHT22;55472;50.060;21.960;2023-02-03T12:20:20;2.10;63.10
68485;DHT22;55472;50.060;21.960;2023-02-03T12:26:21;2.40;64.10
68485;DHT22;55472;50.060;21.960;2023-02-03T12:34:31;2.30;63.50
68485;DHT22;55472;50.060;21.960;2023-02-03T12:37:11;2.30;63.90
68485;DHT22;55472;50.060;21.960;2023-02-03T12:45:30;2.40;62.70
68485;DHT22;55472;50.060;21.960;2023-02-03T12:48:12;2.40;62.30
68485;DHT22;55472;50.060;21.960;2023-02-03T12:50:45;2.30;62.90
68485;DHT22;55472;50.060;21.960;2023-02-03T12:56:41;2.20;62.10
68485;DHT22;55472;50.060;21.960;2023-02-03T12:59:14;2.10;62.00
68485;DHT22;55472;50.060;21.960;2023-02-03T13:07:39;1.90;61.60
68485;DHT22;55472;50.060;21.960;2023-02-03T13:12:57;1.80;62.90
68485;DHT22;55472;50.060;21.960;2023-02-03T13:15:29;1.80;63.10
68485;DHT22;55472;50.060;21.960;2023-02-03T13:20:40;1.70;64.00
68485;DHT22;55472;50.060;21.960;2023-02-03T13:23:12;1.70;63.40
68485;DHT22;55472;50.060;21.960;2023-02-03T13:37:15;1.60;64.50
68485;DHT22;55472;50.060;21.960;2023-02-03T13:42:31;1.60;64.30
68485;DHT22;55472;50.060;21.960;2023-02-03T13:47:46;1.50;64.70
68485;DHT22;55472;50.060;21.960;2023-02-03T13:50:27;1.50;64.90
68485;DHT22;55472;50.060;21.960;2023-02-03T13:53:22;1.50;64.90
68485;DHT22;55472;50.060;21.960;2023-02-03T13:56:01;1.40;65.20
68485;DHT22;55472;50.060;21.960;2023-02-03T13:58:34;1.40;65.50
68485;DHT22;55472;50.060;21.960;2023-02-03T14:04:03;1.30;65.50
68485;DHT22;55472;50.060;21.960;2023-02-03T14:14:55;1.30;65.90
68485;DHT22;55472;50.060;21.960;2023-02-03T14:20:10;1.20;64.20
68485;DHT22;55472;50.060;21.960;2023-02-03T14:25:18;1.10;64.80
68485;DHT22;55472;50.060;21.960;2023-02-03T14:27:47;1.00;66.00
68485;DHT22;55472;50.060;21.960;2023-02-03T14:30:30;1.00;66.90
68485;DHT22;55472;50.060;21.960;2023-02-03T14:32:59;0.90;67.80
68485;DHT22;55472;50.060;21.960;2023-02-03T14:35:33;0.90;69.20
68485;DHT22;55472;50.060;21.960;2023-02-03T14:49:41;0.50;76.60
68485;DHT22;55472;50.060;21.960;2023-02-03T14:58:35;0.10;80.10
68485;DHT22;55472;50.060;21.960;2023-02-03T15:06:47;-0.10;84.60
68485;DHT22;55472;50.060;21.960;2023-02-03T15:09:46;-0.30;85.70
68485;DHT22;55472;50.060;21.960;2023-02-03T15:12:23;-0.30;87.00
68485;DHT22;55472;50.060;21.960;2023-02-03T15:14:51;-0.40;88.30
68485;DHT22;55472;50.060;21.960;2023-02-03T15:17:22;-0.40;89.40
68485;DHT22;55472;50.060;21.960;2023-02-03T15:19:50;-0.50;90.10
68485;DHT22;55472;50.060;21.960;2023-02-03T15:24:54;-0.60;90.20
68485;DHT22;55472;50.060;21.960;2023-02-03T15:27:30;-0.70;90.40
68485;DHT22;55472;50.060;21.960;2023-02-03T15:29:57;-0.80;91.20
68485;DHT22;55472;50.060;21.960;2023-02-03T15:32:31;-0.80;91.50
68485;DHT22;55472;50.060;21.960;2023-02-03T15:35:03;-0.80;91.90
68485;DHT22;55472;50.060;21.960;2023-02-03T15:37:36;-0.90;91.90
68485;DHT22;55472;50.060;21.960;2023-02-03T15:40:15;-1.00;92.40
68485;DHT22;55472;50.060;21.960;2023-02-03T15:42:52;-1.00;93.00
68485;DHT22;55472;50.060;21.960;2023-02-03T15:45:34;-1.10;94.00
68485;DHT22;55472;50.060;21.960;2023-02-03T15:50:56;-1.20;95.30
68485;DHT22;55472;50.060;21.960;2023-02-03T15:53:33;-1.20;96.00
68485;DHT22;55472;50.060;21.960;2023-02-03T15:56:34;-1.20;96.30
68485;DHT22;55472;50.060;21.960;2023-02-03T15:59:04;-1.30;96.50
68485;DHT22;55472;50.060;21.960;2023-02-03T16:01:31;-1.30;96.80
68485;DHT22;55472;50.060;21.960;2023-02-03T16:03:58;-1.40;97.20
68485;DHT22;55472;50.060;21.960;2023-02-03T16:06:33;-1.30;97.70
68485;DHT22;55472;50.060;21.960;2023-02-03T16:09:03;-1.40;97.90
68485;DHT22;55472;50.060;21.960;2023-02-03T16:14:04;-1.40;98.70
68485;DHT22;55472;50.060;21.960;2023-02-03T16:16:41;-1.40;98.70
68485;DHT22;55472;50.060;21.960;2023-02-03T16:19:20;-1.40;99.10
68485;DHT22;55472;50.060;21.960;2023-02-03T16:30:32;-1.40;99.90
68485;DHT22;55472;50.060;21.960;2023-02-03T16:35:56;-1.50;99.90
68485;DHT22;55472;50.060;21.960;2023-02-03T16:38:48;-1.40;99.90
68485;DHT22;55472;50.060;21.960;2023-02-03T16:41:34;-1.50;99.90
68485;DHT22;55472;50.060;21.960;2023-02-03T16:44:20;-1.50;99.90
68485;DHT22;55472;50.060;21.960;2023-02-03T16:47:30;-1.50;99.90
68485;DHT22;55472;50.060;21.960;2023-02-03T16:50:20;-1.40;99.90
68485;DHT22;55472;50.060;21.960;2023-02-03T16:53:14;-1.40;99.90
68485;DHT22;55472;50.060;21.960;2023-02-03T16:55:44;-1.40;99.90
68485;DHT22;55472;50.060;21.960;2023-02-03T16:58:11;-1.50;99.90
68485;DHT22;55472;50.060;21.960;2023-02-03T17:00:39;-1.50;99.90
68485;DHT22;55472;50.060;21.960;2023-02-03T17:03:07;-1.50;99.90
68485;DHT22;55472;50.060;21.960;2023-02-03T17:05:48;-1.40;99.90
68485;DHT22;55472;50.060;21.960;2023-02-03T17:08:17;-1.50;99.90
68485;DHT22;55472;50.060;21.960;2023-02-03T17:10:46;-1.50;99.90
68485;DHT22;55472;50.060;21.960;2023-02-03T17:13:13;-1.40;99.90
68485;DHT22;55472;50.060;21.960;2023-02-03T17:15:42;-1.40;99.90
68485;DHT22;55472;50.060;21.960;2023-02-03T17:18:10;-1.40;99.90
68485;DHT22;55472;50.060;21.960;2023-02-03T17:20:37;-1.40;99.90
68485;DHT22;55472;50.060;21.960;2023-02-03T17:23:03;-1.40;99.90
68485;DHT22;55472;50.060;21.960;2023-02-03T17:25:34;-1.40;99.90
68485;DHT22;55472;50.060;21.960;2023-02-03T17:28:03;-1.40;99.90
68485;DHT22;55472;50.060;21.960;2023-02-03T17:30:30;-1.40;99.90
68485;DHT22;55472;50.060;21.960;2023-02-03T17:33:06;-1.40;99.90
68485;DHT22;55472;50.060;21.960;2023-02-03T17:35:41;-1.40;99.90
68485;DHT22;55472;50.060;21.960;2023-02-03T17:38:10;-1.40;99.90
68485;DHT22;55472;50.060;21.960;2023-02-03T17:40:41;-1.40;99.90
68485;DHT22;55472;50.060;21.960;2023-02-03T17:43:08;-1.40;99.90
68485;DHT22;55472;50.060;21.960;2023-02-03T17:45:39;-1.30;99.90
68485;DHT22;55472;50.060;21.960;2023-02-03T17:48:05;-1.40;99.90
68485;DHT22;55472;50.060;21.960;2023-02-03T17:50:31;-1.30;99.90
68485;DHT22;55472;50.060;21.960;2023-02-03T17:52:58;-1.30;99.90
68485;DHT22;55472;50.060;21.960;2023-02-03T17:55:24;-1.40;99.90
68485;DHT22;55472;50.060;21.960;2023-02-03T17:57:50;-1.40;99.90
68485;DHT22;55472;50.060;21.960;2023-02-03T18:00:17;-1.40;99.90
68485;DHT22;55472;50.060;21.960;2023-02-03T18:02:46;-1.40;99.90
68485;DHT22;55472;50.060;21.960;2023-02-03T18:05:14;-1.40;99.90
68485;DHT22;55472;50.060;21.960;2023-02-03T18:07:40;-1.40;99.90
68485;DHT22;55472;50.060;21.960;2023-02-03T18:10:07;-1.40;99.90
68485;DHT22;55472;50.060;21.960;2023-02-03T18:12:33;-1.40;99.90
68485;DHT22;55472;50.060;21.960;2023-02-03T18:15:00;-1.40;99.90
68485;DHT22;55472;50.060;21.960;2023-02-03T18:17:26;-1.40;99.90
68485;DHT22;55472;50.060;21.960;2023-02-03T18:19:52;-1.40;99.90
68485;DHT22;55472;50.060;21.960;2023-02-03T18:22:20;-1.40;99.90
68485;DHT22;55472;50.060;21.960;2023-02-03T18:24:46;-1.40;99.90
68485;DHT22;55472;50.060;21.960;2023-02-03T18:27:16;-1.40;99.90
68485;DHT22;55472;50.060;21.960;2023-02-03T18:29:44;-1.30;99.90
68485;DHT22;55472;50.060;21.960;2023-02-03T18:32:12;-1.30;99.90
68485;DHT22;55472;50.060;21.960;2023-02-03T18:34:40;-1.40;99.90
68485;DHT22;55472;50.060;21.960;2023-02-03T18:37:07;-1.40;99.90
68485;DHT22;55472;50.060;21.960;2023-02-03T18:39:33;-1.30;99.90
68485;DHT22;55472;50.060;21.960;2023-02-03T18:41:59;-1.30;99.90
68485;DHT22;55472;50.060;21.960;2023-02-03T18:44:25;-1.30;99.90
68485;DHT22;55472;50.060;21.960;2023-02-03T18:46:53;-1.30;99.90
68485;DHT22;55472;50.060;21.960;2023-02-03T18:49:19;-1.30;99.90
68485;DHT22;55472;50.060;21.960;2023-02-03T18:51:45;-1.30;99.90
68485;DHT22;55472;50.060;21.960;2023-02-03T18:54:12;-1.30;99.90
68485;DHT22;55472;50.060;21.960;2023-02-03T18:56:38;-1.20;99.90